x

East Scotia Slope (44137) Wave Buoy

1:00am - Wed 10th Feb 2016 All times are EST. -5 hours from GMT.

  • Sig Wave height 12.1ft
  • Peak Period 7s
  • Wind
    20mph, 27mph gusts
  • Sea Temp 58°f
  • Air Temp 40°f
  • Sea Pressure 998.5mb
  • East Scotia Slope
  • East Scotia Slope

More Historic Weather Station data

Upgrade to MSW Pro to gain access to the past 30 days of data for over 8000 Wavebouys and Weather Stations around the globe.

Join Pro

Comparision Forecast

View Surf forecast
   
Wed 02/10 1:00am 12ft 7s 20 27 mph 998.5mb 58f 40f
12:00am 13ft 7s 29 38 mph 997.2mb 58f 40f
Tue 02/09 11:00pm 14ft 8s 31 40 mph 992.9mb 57f 41f
10:00pm 14ft 12s 40 54 mph 991mb 57f 39f
9:00pm 13.5ft 14s 40 54 mph 983.3mb 57f 43f
8:00pm 13.5ft 14s 29 38 mph 987.3mb 58f 47f
7:00pm 12.5ft 12s 29 38 mph 989.2mb 58f 47f
6:00pm 15.5ft 12s 29 36 mph 991.9mb 58f 44f
5:00pm 15.5ft 12s 27 36 mph 994.2mb 57f 44f
4:00pm 17ft 13s 16 22 mph 997.8mb 58f 42f
3:00pm 18.5ft 14s 9 16 mph 999.3mb 58f 42f
2:00pm 19ft 14s 9 13 mph 1001.8mb 58f 42f
1:00pm 20ft 13s 13 18 mph 1001.7mb 58f 42f
12:00pm 22.5ft 14s 16 22 mph 1001.8mb 58f 43f
11:00am 24.5ft 14s 20 27 mph 1002.6mb 58f 43f
10:00am 23ft 17s 22 29 mph 1003mb 58f 43f
9:00am 22.5ft 14s 20 27 mph 1002mb 58f 42f
8:00am 25.5ft 16s 22 29 mph 1001.3mb 58f 42f
7:00am 26ft 14s 25 34 mph 999.8mb 58f 42f
6:00am 26ft 15s 22 31 mph 997.7mb 58f 43f
5:00am 28.5ft 15s 25 34 mph 995.9mb 58f 43f
4:00am 25.5ft 13s 22 31 mph 993.9mb 58f 43f
3:00am 24.5ft 12s 20 29 mph 991.4mb 58f 44f
2:00am 25.5ft 13s 18 25 mph 989.2mb 58f 44f
1:00am 22.5ft 12s 20 27 mph 986.9mb 58f 45f
12:00am 22.5ft 12s 22 31 mph 984.5mb 58f 47f
Mon 02/08 11:00pm 23.5ft 13s 27 36 mph 982.5mb 58f 48f
10:00pm 26ft 12s 36 43 mph 980.6mb 58f 49f
9:00pm 24.5ft 13s 40 54 mph 979.3mb 58f 49f
8:00pm 25ft 12s 45 58 mph 978.5mb 58f 50f
7:00pm 26.5ft 12s 38 54 mph 979.3mb 58f 53f
6:00pm 27ft 12s 40 56 mph 981.4mb 58f 54f
5:00pm 25ft 12s 40 49 mph 983.4mb 58f 54f
4:00pm 25.5ft 12s 45 54 mph 985.8mb 58f 53f
3:00pm 23ft 12s 47 58 mph 988.4mb 58f 51f
2:00pm 23.5ft 10s 45 56 mph 991.5mb 58f 49f
1:00pm 22.5ft 10s 49 60 mph 992.6mb 58f 48f
12:00pm 20.5ft 10s 47 67 mph 995.8mb 58f 47f
11:00am 18.5ft 10s 47 60 mph 999.3mb 58f 45f
10:00am 17.5ft 9s 45 58 mph 1002.9mb 58f 44f
9:00am 15.5ft 8s 45 54 mph 1005.5mb 58f 42f
8:00am 14ft 8s 43 54 mph 1008.3mb 58f 40f
7:00am 12ft 8s 38 49 mph 1010.7mb 57f 40f
6:00am 11.5ft 7s 40 47 mph 1010.9mb 57f 39f
5:00am 10ft 7s 38 47 mph 1012.4mb 56f 39f
4:00am 8.5ft 7s 34 43 mph 1014.3mb 56f 40f
3:00am 6.5ft 5s 31 40 mph 1015mb 56f 43f
2:00am 5ft 8s 29 40 mph 1016.5mb 56f 43f
1:00am 5ft 8s 22 27 mph 1018.4mb 56f 44f
12:00am 4.5ft 9s 20 25 mph 1018.4mb 56f 44f
Sun 02/07 11:00pm 4.5ft 10s 16 22 mph 1019.4mb 55f 44f
10:00pm 5ft 9s 9 13 mph 1020.8mb 55f 44f
9:00pm 4.5ft 9s 11 16 mph 1021.4mb 55f 44f
8:00pm 5ft 9s 9 13 mph 1021.4mb 55f 44f
7:00pm 4.5ft 10s 11 13 mph 1022mb 55f 44f
6:00pm 4.5ft 10s 9 13 mph 1022.2mb 55f 44f
5:00pm 4.5ft 9s 13 18 mph 1021.4mb 55f 44f
4:00pm 4.5ft 9s 9 13 mph 1021.5mb 55f 44f
3:00pm 4.5ft 9s 9 13 mph 1021.5mb 55f 44f
2:00pm 4.5ft 9s 9 11 mph 1021.9mb 55f 44f
1:00pm 5ft 10s 7 9 mph 1021.9mb 55f 44f
12:00pm 5ft 10s 4 9 mph 1021.4mb 55f 44f
11:00am 4.5ft 10s 9 11 mph 1023.2mb 55f 43f
10:00am 5ft 10s 4 9 mph 1023.4mb 53f 42f
9:00am 5ft 10s 4 7 mph 1024mb 53f 42f
8:00am 5ft 8s 4 7 mph 1023.9mb 54f 41f
7:00am 4.5ft 10s 2 4 mph 1024.2mb 54f 41f
6:00am 5ft 10s 2 4 mph 1023.8mb 54f 40f
5:00am 5ft 8s 2 7 mph 1023.5mb 54f 39f
4:00am 5ft 10s 4 9 mph 1023.8mb 53f 39f
3:00am 5.5ft 8s 4 9 mph 1024.1mb 53f 38f
2:00am 5.5ft 8s 7 11 mph 1025.1mb 52f 38f
1:00am 6ft 10s 9 16 mph 1026mb 52f 38f
12:00am 6.5ft 9s 7 9 mph 1026.9mb 52f 37f
Sat 02/06 11:00pm 6.5ft 10s 7 11 mph 1027.6mb 52f 37f
10:00pm 7ft 10s 7 11 mph 1027.7mb 52f 37f
9:00pm 8ft 10s 9 13 mph 1027.4mb 53f 37f
8:00pm 9ft 11s 11 18 mph 1027.6mb 53f 37f
7:00pm 9ft 10s 13 18 mph 1027.7mb 53f 37f
6:00pm 9ft 8s 11 16 mph 1027.1mb 52f 37f
5:00pm 10ft 8s 13 18 mph 1026.4mb 53f 37f
4:00pm 11ft 8s 16 20 mph 1026.1mb 53f 37f
3:00pm 10.5ft 8s 16 22 mph 1025.8mb 53f 37f
2:00pm 11.5ft 9s 20 27 mph 1025.6mb 53f 37f
1:00pm 12ft 9s 16 22 mph 1025mb 53f 36f
12:00pm 13.5ft 10s 20 25 mph 1023.9mb 52f 37f
11:00am 14ft 9s 22 29 mph 1022.9mb 52f 36f
10:00am 15.5ft 10s 18 25 mph 1023.8mb 52f 36f
9:00am 16.5ft 10s 18 27 mph 1023.5mb 51f 37f
8:00am 18ft 10s 22 29 mph 1021.8mb 51f 36f